Strona główna
METAR-TAF:

METAR-TAF

Lotnisko :

Port lotniczy Prisztina

Prisztina, Kosowo

Szerokość geograficzna: 42-34-27N, Długość geograficzna: 21-02-09E, wysokość: 545 m

Aktualna obserwacja pogody

Raport powstał 25 minut temu, godzina 02:30 UTC
Wiatr 3 kt z kierunków zmiennych
Temperatura 1°C
Wilgotność 59%
Ciśnienie 1023 hPa
Widzialność 10 km lub więcej
Brak chmur poniżej 1500 m i brak chmur cumulonimbus

METAR: BKPR 090230Z VRB03KT CAVOK 01/M06 Q1023 NOSIG

czas: 04:55 (02:55 UTC)

Prognoza

Raport powstał 3 godziny i 25 minut temu, godzina 23:30 UTC
Prognoza ważna od 09 godzina 00 UTC do 09 godzina 24 UTC
Wiatr 8 kt od północno-północny wschód
Widzialność 10 km lub więcej
Brak chmur poniżej 1500 m i brak chmur cumulonimbus

TAF: BKPR 082330Z 0900/0924 02008KT CAVOK

Obserwacja i prognoza pogody dla ponad 4000 lotnisk (raport METAR i TAF).

Dostępne stacje oznaczono żółtymi i czerwonymi punktami na mapie.

Najedź kursorem aby zobaczyć nazwę stacji.

Kliknij aby zobaczyć obserwacje i prognozy pogody.

Aby zmienić mapę: kliknij na zielony przycisk z czarnym krzyżykiem, aby powiększyć; na zielony przycisk z myślnikiem, aby pomniejszyć; na zielone strzałki, aby przejść do map sąsiednich.


METAR-TAF: